Time;durP1;ratioP1;P1;durP2;ratioP2;P2;SDS_P1;SDS_P2;PMS_P1;PMS_P2;Temp;Humidity;BMP_temperature;BMP_pressure;BME280_temperature;BME280_humidity;BME280_pressure;Samples;Min_cycle;Max_cycle;Signal;HPM_P1;HPM_P2
2022/09/17 00:00:47;;;;;;;0.98;0.65;;;;;;;;;;5016245;28;20075;-67
2022/09/17 00:03:19;;;;;;;0.95;0.52;;;;;;;;;;5015802;28;20383;-66
2022/09/17 00:05:47;;;;;;;1.67;1.10;;;;;;;;;;5017453;28;20057;-67
2022/09/17 00:08:16;;;;;;;1.20;0.80;;;;;;;;;;5024139;28;20513;-67
2022/09/17 00:10:45;;;;;;;1.08;0.65;;;;;;;;;;5023969;28;20049;-66
2022/09/17 00:13:13;;;;;;;4.10;0.80;;;;;;;;;;5022997;28;20053;-68
2022/09/17 00:15:42;;;;;;;0.93;0.63;;;;;;;;;;5025735;28;20510;-67
2022/09/17 00:18:11;;;;;;;1.38;0.55;;;;;;;;;;5027293;28;20046;-66
2022/09/17 00:20:41;;;;;;;1.95;0.80;;;;;;;;;;5024962;28;20063;-66
2022/09/17 00:23:09;;;;;;;0.73;0.73;;;;;;;;;;5027120;28;20053;-68
2022/09/17 00:25:38;;;;;;;0.50;0.50;;;;;;;;;;5022797;28;20071;-67
2022/09/17 00:28:07;;;;;;;7.30;0.93;;;;;;;;;;5013157;28;20037;-66
2022/09/17 00:30:35;;;;;;;3.00;0.82;;;;;;;;;;5016005;28;20053;-68
2022/09/17 00:33:06;;;;;;;1.42;0.93;;;;;;;;;;5023480;28;20079;-68
2022/09/17 00:35:36;;;;;;;0.73;0.52;;;;;;;;;;5024317;28;20057;-66
2022/09/17 00:38:04;;;;;;;0.73;0.52;;;;;;;;;;5024067;28;20099;-67
2022/09/17 00:40:33;;;;;;;2.00;0.60;;;;;;;;;;5020562;28;20059;-66
2022/09/17 00:43:01;;;;;;;0.43;0.38;;;;;;;;;;5020321;28;20502;-66
2022/09/17 00:45:31;;;;;;;1.10;0.80;;;;;;;;;;5018187;28;20395;-67
2022/09/17 00:48:00;;;;;;;1.55;0.52;;;;;;;;;;5018191;28;20049;-67
2022/09/17 00:50:30;;;;;;;1.33;0.73;;;;;;;;;;5020605;28;20060;-69
2022/09/17 00:53:02;;;;;;;0.98;0.70;;;;;;;;;;5027980;28;20471;-67
2022/09/17 00:55:32;;;;;;;0.20;0.20;;;;;;;;;;5026718;28;20042;-66
2022/09/17 00:58:02;;;;;;;0.82;0.30;;;;;;;;;;5023747;28;20045;-69
2022/09/17 01:00:30;;;;;;;0.35;0.35;;;;;;;;;;5024022;28;20050;-65
2022/09/17 01:02:59;;;;;;;0.85;0.30;;;;;;;;;;5021616;28;20077;-66
2022/09/17 01:05:32;;;;;;;5.45;0.60;;;;;;;;;;5026506;28;20064;-66
2022/09/17 01:08:07;;;;;;;0.20;0.17;;;;;;;;;;5021048;28;20342;-66
2022/09/17 01:10:47;;;;;;;0.03;0.03;;;;;;;;;;5020410;28;20042;-66
2022/09/17 01:13:20;;;;;;;0.30;0.30;;;;;;;;;;5019344;28;20046;-69
2022/09/17 01:15:52;;;;;;;0.10;0.10;;;;;;;;;;5030064;28;20061;-67
2022/09/17 01:18:27;;;;;;;0.38;0.32;;;;;;;;;;5023451;28;20046;-65
2022/09/17 01:21:08;;;;;;;1.75;0.40;;;;;;;;;;5025837;28;20045;-70
2022/09/17 01:23:52;;;;;;;0.50;0.25;;;;;;;;;;5026007;28;20046;-66
2022/09/17 01:26:31;;;;;;;0.47;0.38;;;;;;;;;;5028289;28;20060;-68
2022/09/17 01:29:08;;;;;;;1.67;0.30;;;;;;;;;;5017503;28;20061;-66
2022/09/17 01:31:44;;;;;;;0.43;0.43;;;;;;;;;;5029007;28;20054;-68
2022/09/17 01:34:19;;;;;;;0.57;0.43;;;;;;;;;;5017104;28;20045;-66
2022/09/17 01:36:57;;;;;;;0.55;0.30;;;;;;;;;;5024794;28;20402;-66
2022/09/17 01:39:31;;;;;;;1.17;0.50;;;;;;;;;;5020320;28;20084;-67
2022/09/17 01:42:06;;;;;;;1.80;0.45;;;;;;;;;;5021776;28;20061;-69
2022/09/17 01:44:38;;;;;;;1.02;0.73;;;;;;;;;;5016787;28;20194;-68
2022/09/17 01:47:10;;;;;;;1.15;0.60;;;;;;;;;;5024337;28;20038;-69
2022/09/17 01:49:39;;;;;;;0.55;0.55;;;;;;;;;;5026782;28;20050;-67
2022/09/17 01:52:09;;;;;;;0.28;0.28;;;;;;;;;;5025018;28;20046;-66
2022/09/17 01:54:40;;;;;;;0.60;0.60;;;;;;;;;;5018873;28;20072;-66
2022/09/17 01:57:12;;;;;;;0.10;0.10;;;;;;;;;;5023881;28;20140;-66
2022/09/17 01:59:43;;;;;;;0.47;0.38;;;;;;;;;;5021120;28;20041;-65
2022/09/17 02:02:15;;;;;;;0.60;0.28;;;;;;;;;;5025866;28;20038;-66
2022/09/17 02:04:45;;;;;;;0.10;0.10;;;;;;;;;;5021453;28;20092;-66
2022/09/17 02:07:19;;;;;;;0.95;0.68;;;;;;;;;;5023165;28;20038;-73
2022/09/17 02:09:49;;;;;;;1.65;0.50;;;;;;;;;;5026014;28;20038;-67
2022/09/17 02:12:21;;;;;;;0.40;0.38;;;;;;;;;;5026671;28;20053;-65
2022/09/17 02:14:50;;;;;;;4.25;0.88;;;;;;;;;;5026192;28;20057;-67
2022/09/17 02:17:25;;;;;;;0.20;0.20;;;;;;;;;;5015511;28;20080;-67
2022/09/17 02:19:55;;;;;;;1.08;0.38;;;;;;;;;;5016550;28;20045;-65
2022/09/17 02:22:26;;;;;;;0.32;0.20;;;;;;;;;;5021790;28;20049;-66
2022/09/17 02:25:00;;;;;;;0.40;0.35;;;;;;;;;;5029697;28;20049;-66
2022/09/17 02:27:35;;;;;;;0.80;0.32;;;;;;;;;;5028280;28;20057;-71
2022/09/17 02:30:04;;;;;;;0.73;0.30;;;;;;;;;;5021208;28;20053;-72
2022/09/17 02:32:33;;;;;;;2.95;0.43;;;;;;;;;;5020024;28;20070;-65
2022/09/17 02:35:02;;;;;;;0.40;0.22;;;;;;;;;;5024518;28;20041;-65
2022/09/17 02:37:30;;;;;;;11.90;0.65;;;;;;;;;;5019254;28;20406;-66
2022/09/17 02:39:59;;;;;;;0.30;0.20;;;;;;;;;;5024805;28;20080;-68
2022/09/17 02:42:32;;;;;;;0.40;0.30;;;;;;;;;;5026902;28;20053;-67
2022/09/17 02:45:05;;;;;;;0.40;0.28;;;;;;;;;;5018988;28;20053;-66
2022/09/17 02:47:48;;;;;;;0.45;0.43;;;;;;;;;;5017639;28;20057;-67
2022/09/17 02:50:25;;;;;;;0.10;0.10;;;;;;;;;;5024175;28;20045;-68
2022/09/17 02:52:59;;;;;;;0.73;0.50;;;;;;;;;;5023192;28;20052;-66
2022/09/17 02:55:31;;;;;;;0.98;0.20;;;;;;;;;;5021077;28;20049;-66
2022/09/17 02:58:05;;;;;;;0.22;0.22;;;;;;;;;;5023449;28;20481;-67
2022/09/17 03:00:34;;;;;;;0.10;0.10;;;;;;;;;;5023765;28;20050;-66
2022/09/17 03:03:05;;;;;;;0.40;0.30;;;;;;;;;;5014805;28;20045;-66
2022/09/17 03:05:37;;;;;;;0.40;0.20;;;;;;;;;;5022313;28;20042;-65
2022/09/17 03:08:08;;;;;;;0.20;0.20;;;;;;;;;;5025704;28;20049;-65
2022/09/17 03:10:36;;;;;;;0.25;0.25;;;;;;;;;;5020892;28;20045;-67
2022/09/17 03:13:08;;;;;;;1.25;0.25;;;;;;;;;;5026497;28;20049;-66
2022/09/17 03:15:36;;;;;;;0.65;0.50;;;;;;;;;;5013261;28;20065;-67
2022/09/17 03:18:04;;;;;;;1.02;0.20;;;;;;;;;;5023019;28;20049;-65
2022/09/17 03:20:34;;;;;;;1.77;0.73;;;;;;;;;;5025242;28;20497;-65
2022/09/17 03:23:04;;;;;;;1.40;0.30;;;;;;;;;;5020778;28;20048;-65
2022/09/17 03:25:32;;;;;;;0.10;0.10;;;;;;;;;;5020458;28;20494;-67
2022/09/17 03:28:01;;;;;;;0.28;0.20;;;;;;;;;;5020588;28;20140;-66
2022/09/17 03:30:29;;;;;;;1.20;0.40;;;;;;;;;;5027150;28;20065;-68
2022/09/17 03:32:57;;;;;;;0.22;0.20;;;;;;;;;;5019403;28;20050;-65
2022/09/17 03:35:26;;;;;;;0.13;0.13;;;;;;;;;;5018780;28;20069;-68
2022/09/17 03:37:54;;;;;;;0.45;0.30;;;;;;;;;;5022034;28;20049;-65
2022/09/17 03:40:24;;;;;;;4.90;0.30;;;;;;;;;;5022086;28;20038;-65
2022/09/17 03:42:52;;;;;;;0.20;0.20;;;;;;;;;;5026577;28;20057;-65
2022/09/17 03:45:20;;;;;;;0.10;0.10;;;;;;;;;;5025522;28;20045;-65
2022/09/17 03:47:48;;;;;;;0.10;0.10;;;;;;;;;;5020907;28;20052;-65
2022/09/17 03:50:17;;;;;;;0.28;0.25;;;;;;;;;;5015848;28;20060;-67
2022/09/17 03:52:45;;;;;;;0.85;0.28;;;;;;;;;;5017713;28;20529;-66
2022/09/17 03:55:14;;;;;;;0.60;0.32;;;;;;;;;;5021389;28;20045;-66
2022/09/17 03:57:44;;;;;;;0.40;0.30;;;;;;;;;;5018089;28;20539;-65
2022/09/17 04:00:16;;;;;;;0.40;0.30;;;;;;;;;;5023384;28;20057;-65
2022/09/17 04:02:44;;;;;;;5.70;0.43;;;;;;;;;;5012641;28;20049;-66
2022/09/17 04:05:13;;;;;;;0.10;0.10;;;;;;;;;;5025155;28;20077;-66
2022/09/17 04:07:41;;;;;;;0.30;0.30;;;;;;;;;;5021408;28;20052;-67
2022/09/17 04:10:11;;;;;;;0.30;0.30;;;;;;;;;;5020349;28;20641;-64
2022/09/17 04:12:40;;;;;;;0.80;0.28;;;;;;;;;;5018294;28;20057;-65
2022/09/17 04:15:10;;;;;;;0.75;0.75;;;;;;;;;;5021508;28;20048;-69
2022/09/17 04:17:38;;;;;;;0.20;0.20;;;;;;;;;;5022201;28;20045;-72
2022/09/17 04:20:07;;;;;;;0.10;0.10;;;;;;;;;;5017358;28;20064;-66
2022/09/17 04:22:35;;;;;;;0.22;0.22;;;;;;;;;;5021018;28;20064;-65
2022/09/17 04:25:04;;;;;;;0.22;0.22;;;;;;;;;;5024771;28;20057;-66
2022/09/17 04:27:35;;;;;;;1.75;0.20;;;;;;;;;;5022707;28;20062;-65
2022/09/17 04:30:03;;;;;;;0.10;0.10;;;;;;;;;;5018407;28;20046;-67
2022/09/17 04:32:33;;;;;;;0.10;0.10;;;;;;;;;;5022073;28;20041;-65
2022/09/17 04:35:01;;;;;;;0.85;0.35;;;;;;;;;;5019856;28;20062;-65
2022/09/17 04:37:31;;;;;;;10.73;0.30;;;;;;;;;;5023294;28;20046;-66
2022/09/17 04:39:59;;;;;;;0.28;0.28;;;;;;;;;;5019797;28;20057;-68
2022/09/17 04:42:35;;;;;;;0.10;0.10;;;;;;;;;;5019474;28;20065;-65
2022/09/17 04:45:04;;;;;;;0.22;0.22;;;;;;;;;;5015481;28;20076;-66
2022/09/17 04:47:33;;;;;;;0.43;0.40;;;;;;;;;;5022675;28;20045;-65
2022/09/17 04:50:02;;;;;;;0.38;0.38;;;;;;;;;;5017926;28;20050;-70
2022/09/17 04:52:30;;;;;;;3.83;0.30;;;;;;;;;;5018976;28;20045;-71
2022/09/17 04:54:58;;;;;;;0.30;0.30;;;;;;;;;;5020089;28;20053;-66
2022/09/17 04:57:26;;;;;;;0.10;0.10;;;;;;;;;;5022390;28;20049;-67
2022/09/17 04:59:55;;;;;;;0.20;0.17;;;;;;;;;;5020980;28;20112;-65
2022/09/17 05:02:23;;;;;;;0.63;0.50;;;;;;;;;;5015548;28;20489;-65
2022/09/17 05:04:53;;;;;;;0.22;0.22;;;;;;;;;;5020976;28;20426;-65
2022/09/17 05:07:21;;;;;;;0.40;0.30;;;;;;;;;;5025318;28;20045;-68
2022/09/17 05:09:50;;;;;;;0.52;0.30;;;;;;;;;;5018722;28;20068;-67
2022/09/17 05:12:18;;;;;;;7.68;0.43;;;;;;;;;;5020529;28;20639;-66
2022/09/17 05:14:50;;;;;;;0.50;0.50;;;;;;;;;;5017629;28;20057;-68
2022/09/17 05:17:21;;;;;;;11.38;0.40;;;;;;;;;;5020466;28;20049;-70
2022/09/17 05:19:49;;;;;;;0.50;0.40;;;;;;;;;;5026118;28;20060;-65
2022/09/17 05:22:19;;;;;;;0.40;0.40;;;;;;;;;;5025780;28;20049;-71
2022/09/17 05:24:48;;;;;;;0.45;0.40;;;;;;;;;;5018292;28;20515;-71
2022/09/17 05:27:17;;;;;;;1.60;0.70;;;;;;;;;;5021140;28;20056;-69
2022/09/17 05:29:45;;;;;;;0.15;0.15;;;;;;;;;;5025288;28;20246;-67
2022/09/17 05:32:14;;;;;;;0.50;0.32;;;;;;;;;;5026686;28;20085;-66
2022/09/17 05:34:42;;;;;;;0.65;0.40;;;;;;;;;;5024608;28;20056;-65
2022/09/17 05:37:10;;;;;;;0.65;0.20;;;;;;;;;;5022384;28;20069;-68
2022/09/17 05:39:40;;;;;;;0.22;0.22;;;;;;;;;;5024151;28;20455;-67
2022/09/17 05:42:08;;;;;;;0.73;0.30;;;;;;;;;;5020575;28;20057;-68
2022/09/17 05:44:37;;;;;;;0.55;0.40;;;;;;;;;;5024531;28;20042;-68
2022/09/17 05:47:07;;;;;;;0.20;0.20;;;;;;;;;;5027719;28;20045;-66
2022/09/17 05:49:36;;;;;;;0.63;0.40;;;;;;;;;;5025436;28;20064;-68
2022/09/17 05:52:04;;;;;;;0.98;0.40;;;;;;;;;;5018743;28;20061;-68
2022/09/17 05:54:32;;;;;;;0.20;0.20;;;;;;;;;;5018320;28;20052;-67
2022/09/17 05:57:02;;;;;;;2.17;0.40;;;;;;;;;;5019743;28;20042;-65
2022/09/17 05:59:31;;;;;;;0.10;0.10;;;;;;;;;;5017366;28;20045;-66
2022/09/17 06:01:59;;;;;;;0.73;0.40;;;;;;;;;;5020642;28;20485;-66
2022/09/17 06:04:28;;;;;;;0.10;0.10;;;;;;;;;;5020109;28;20523;-66
2022/09/17 06:07:04;;;;;;;0.17;0.17;;;;;;;;;;5021677;28;20076;-64
2022/09/17 06:09:33;;;;;;;0.20;0.13;;;;;;;;;;5024316;28;20061;-69
2022/09/17 06:12:03;;;;;;;0.28;0.28;;;;;;;;;;5019766;28;20054;-69
2022/09/17 06:14:31;;;;;;;0.20;0.20;;;;;;;;;;5024338;28;20411;-69
2022/09/17 06:17:00;;;;;;;0.30;0.28;;;;;;;;;;5018644;28;20056;-67
2022/09/17 06:19:28;;;;;;;0.25;0.25;;;;;;;;;;5024680;28;20071;-67
2022/09/17 06:21:56;;;;;;;0.10;0.10;;;;;;;;;;5019680;28;20049;-69
2022/09/17 06:24:25;;;;;;;1.08;0.35;;;;;;;;;;5022712;28;20064;-65
2022/09/17 06:26:53;;;;;;;0.40;0.40;;;;;;;;;;5018969;28;20127;-66
2022/09/17 06:29:23;;;;;;;1.00;0.98;;;;;;;;;;5018653;28;20045;-69
2022/09/17 06:31:54;;;;;;;0.20;0.20;;;;;;;;;;5020397;28;20049;-65
2022/09/17 06:34:22;;;;;;;0.20;0.20;;;;;;;;;;5020043;28;20372;-66
2022/09/17 06:36:51;;;;;;;6.60;0.50;;;;;;;;;;5021273;28;20531;-66
2022/09/17 06:39:19;;;;;;;0.10;0.10;;;;;;;;;;5016087;28;20045;-67
2022/09/17 06:41:47;;;;;;;0.25;0.25;;;;;;;;;;5017980;28;20092;-66
2022/09/17 06:44:15;;;;;;;6.40;0.20;;;;;;;;;;5015398;28;20042;-70
2022/09/17 06:46:49;;;;;;;1.20;0.65;;;;;;;;;;5016483;28;20565;-65
2022/09/17 06:49:18;;;;;;;0.98;0.43;;;;;;;;;;5020263;28;20501;-73
2022/09/17 06:51:46;;;;;;;0.55;0.20;;;;;;;;;;5020473;28;20060;-65
2022/09/17 06:54:14;;;;;;;1.70;0.82;;;;;;;;;;5008561;28;20585;-68
2022/09/17 06:56:43;;;;;;;0.20;0.20;;;;;;;;;;5020156;28;20442;-67
2022/09/17 06:59:11;;;;;;;0.40;0.40;;;;;;;;;;5014558;28;20249;-68
2022/09/17 07:01:39;;;;;;;0.40;0.40;;;;;;;;;;5024949;28;20056;-67
2022/09/17 07:04:09;;;;;;;0.30;0.30;;;;;;;;;;5018257;28;20163;-69
2022/09/17 07:06:37;;;;;;;0.30;0.30;;;;;;;;;;5023756;28;20380;-68
2022/09/17 07:09:06;;;;;;;0.80;0.60;;;;;;;;;;5019120;28;20045;-70
2022/09/17 07:11:38;;;;;;;0.52;0.30;;;;;;;;;;5020288;28;20045;-75
2022/09/17 07:14:06;;;;;;;0.45;0.43;;;;;;;;;;5020988;28;20042;-71
2022/09/17 07:16:35;;;;;;;0.30;0.30;;;;;;;;;;5024736;28;20057;-67
2022/09/17 07:19:04;;;;;;;0.75;0.35;;;;;;;;;;5021576;28;21190;-67
2022/09/17 07:21:36;;;;;;;0.22;0.22;;;;;;;;;;5017061;28;20045;-67
2022/09/17 07:24:04;;;;;;;0.20;0.20;;;;;;;;;;5020820;28;20053;-66
2022/09/17 07:26:33;;;;;;;6.90;0.68;;;;;;;;;;5018856;28;20050;-66
2022/09/17 07:29:01;;;;;;;1.92;0.50;;;;;;;;;;5017653;28;20073;-65
2022/09/17 07:31:31;;;;;;;1.75;0.90;;;;;;;;;;5021901;28;20050;-69
2022/09/17 07:34:00;;;;;;;9.27;0.68;;;;;;;;;;5018048;28;20081;-66
2022/09/17 07:36:28;;;;;;;0.20;0.20;;;;;;;;;;5017214;28;20056;-68
2022/09/17 07:38:58;;;;;;;0.77;0.38;;;;;;;;;;5017420;28;20132;-68
2022/09/17 07:41:26;;;;;;;0.20;0.20;;;;;;;;;;5020992;28;20049;-68
2022/09/17 07:43:55;;;;;;;1.38;0.43;;;;;;;;;;5017663;28;20075;-68
2022/09/17 07:46:23;;;;;;;1.33;0.45;;;;;;;;;;5019683;28;20053;-66
2022/09/17 07:48:52;;;;;;;0.52;0.52;;;;;;;;;;5021951;28;20152;-69
2022/09/17 07:51:21;;;;;;;3.40;0.50;;;;;;;;;;5020754;28;20367;-69
2022/09/17 07:53:51;;;;;;;0.43;0.30;;;;;;;;;;5025901;28;20045;-68
2022/09/17 07:56:21;;;;;;;2.08;0.38;;;;;;;;;;5020604;28;20045;-71
2022/09/17 07:58:49;;;;;;;0.98;0.40;;;;;;;;;;5020492;28;20037;-70
2022/09/17 08:01:19;;;;;;;0.40;0.40;;;;;;;;;;5025333;28;20057;-70
2022/09/17 08:03:49;;;;;;;0.25;0.25;;;;;;;;;;5028969;28;20053;-71
2022/09/17 08:06:18;;;;;;;1.17;0.85;;;;;;;;;;5025782;28;20052;-69
2022/09/17 08:08:47;;;;;;;2.97;0.70;;;;;;;;;;5021241;28;20409;-70
2022/09/17 08:11:17;;;;;;;0.20;0.20;;;;;;;;;;5024425;28;20041;-70
2022/09/17 08:14:07;;;;;;;0.40;0.40;;;;;;;;;;5025797;28;20045;-70
2022/09/17 08:16:35;;;;;;;0.68;0.40;;;;;;;;;;5025721;28;20053;-68
2022/09/17 08:19:03;;;;;;;0.10;0.10;;;;;;;;;;5016079;28;20464;-73
2022/09/17 08:21:32;;;;;;;7.38;0.40;;;;;;;;;;5023571;28;20045;-72
2022/09/17 08:24:01;;;;;;;0.65;0.50;;;;;;;;;;5019820;28;20377;-72
2022/09/17 08:26:30;;;;;;;0.75;0.45;;;;;;;;;;5019563;28;20403;-70
2022/09/17 08:29:00;;;;;;;0.30;0.30;;;;;;;;;;5017765;28;20056;-70
2022/09/17 08:31:32;;;;;;;0.32;0.25;;;;;;;;;;5016914;28;20061;-70
2022/09/17 08:34:00;;;;;;;0.77;0.38;;;;;;;;;;5023122;28;20123;-69
2022/09/17 08:36:29;;;;;;;0.88;0.43;;;;;;;;;;5016187;28;20053;-71
2022/09/17 08:38:58;;;;;;;3.13;0.25;;;;;;;;;;5025674;28;20053;-69
2022/09/17 08:41:29;;;;;;;0.57;0.40;;;;;;;;;;5022994;28;20052;-71
2022/09/17 08:44:01;;;;;;;0.17;0.17;;;;;;;;;;5019580;28;20480;-69
2022/09/17 08:46:34;;;;;;;0.20;0.20;;;;;;;;;;5015293;28;20053;-70
2022/09/17 08:49:07;;;;;;;0.77;0.38;;;;;;;;;;5015872;28;20073;-69
2022/09/17 08:51:40;;;;;;;0.30;0.30;;;;;;;;;;5020099;28;20398;-69
2022/09/17 08:54:12;;;;;;;0.57;0.20;;;;;;;;;;5019441;28;20045;-70
2022/09/17 08:56:43;;;;;;;0.32;0.32;;;;;;;;;;5022487;28;20523;-70
2022/09/17 08:59:18;;;;;;;0.40;0.28;;;;;;;;;;5022514;28;20068;-69
2022/09/17 09:01:55;;;;;;;0.10;0.10;;;;;;;;;;5024726;28;20069;-69
2022/09/17 09:04:32;;;;;;;0.38;0.38;;;;;;;;;;5018587;28;20096;-69
2022/09/17 09:07:05;;;;;;;0.30;0.15;;;;;;;;;;5027586;28;20049;-69
2022/09/17 09:09:37;;;;;;;0.30;0.30;;;;;;;;;;5026042;28;20695;-68
2022/09/17 09:12:08;;;;;;;0.10;0.10;;;;;;;;;;5015338;28;20056;-70
2022/09/17 09:14:39;;;;;;;0.43;0.30;;;;;;;;;;5019754;28;20075;-69
2022/09/17 09:17:10;;;;;;;3.88;0.30;;;;;;;;;;5022982;28;20041;-69
2022/09/17 09:19:43;;;;;;;3.83;0.38;;;;;;;;;;5020900;28;20128;-69
2022/09/17 09:22:21;;;;;;;0.20;0.20;;;;;;;;;;5022235;28;20057;-70
2022/09/17 09:24:52;;;;;;;0.75;0.35;;;;;;;;;;5018337;28;20056;-70
2022/09/17 09:27:24;;;;;;;3.67;0.38;;;;;;;;;;5022827;28;20494;-70
2022/09/17 09:30:00;;;;;;;0.30;0.30;;;;;;;;;;5019859;28;20046;-69
2022/09/17 09:32:38;;;;;;;0.40;0.17;;;;;;;;;;5017818;28;20048;-68
2022/09/17 09:35:14;;;;;;;2.17;0.73;;;;;;;;;;5021457;28;20062;-68
2022/09/17 09:37:44;;;;;;;0.35;0.35;;;;;;;;;;5018612;28;20054;-68
2022/09/17 09:40:20;;;;;;;0.20;0.20;;;;;;;;;;5018554;28;20244;-70
2022/09/17 09:42:49;;;;;;;0.55;0.40;;;;;;;;;;5021513;28;20579;-69
2022/09/17 09:45:21;;;;;;;0.55;0.50;;;;;;;;;;5015408;28;20054;-68
2022/09/17 09:47:55;;;;;;;0.43;0.43;;;;;;;;;;5021912;28;20124;-71
2022/09/17 09:50:34;;;;;;;0.40;0.40;;;;;;;;;;5029310;28;20149;-69
2022/09/17 09:53:26;;;;;;;0.17;0.17;;;;;;;;;;5019999;28;20307;-75
2022/09/17 09:56:07;;;;;;;0.25;0.25;;;;;;;;;;5015686;28;20048;-69
2022/09/17 09:58:37;;;;;;;0.15;0.15;;;;;;;;;;5019883;28;20057;-70
2022/09/17 10:01:13;;;;;;;16.67;0.40;;;;;;;;;;5019807;28;20126;-70
2022/09/17 10:03:44;;;;;;;1.35;0.52;;;;;;;;;;5018202;28;20049;-69
2022/09/17 10:06:14;;;;;;;0.10;0.10;;;;;;;;;;5022589;28;20099;-69
2022/09/17 10:08:43;;;;;;;0.22;0.22;;;;;;;;;;5022797;28;20037;-70
2022/09/17 10:11:20;;;;;;;0.40;0.40;;;;;;;;;;5018004;28;20048;-70
2022/09/17 10:13:49;;;;;;;0.30;0.30;;;;;;;;;;5023282;28;20049;-73
2022/09/17 10:16:18;;;;;;;0.20;0.20;;;;;;;;;;5017854;28;20049;-70
2022/09/17 10:18:49;;;;;;;0.47;0.47;;;;;;;;;;5018826;28;20400;-69
2022/09/17 10:21:21;;;;;;;5.93;0.60;;;;;;;;;;5020022;28;20045;-69
2022/09/17 10:23:50;;;;;;;4.70;1.13;;;;;;;;;;5013647;28;20041;-70
2022/09/17 10:26:26;;;;;;;0.70;0.35;;;;;;;;;;5020411;28;20057;-72
2022/09/17 10:28:55;;;;;;;0.63;0.30;;;;;;;;;;5021201;28;20056;-69
2022/09/17 10:31:26;;;;;;;4.82;0.45;;;;;;;;;;5013642;28;20120;-68
2022/09/17 10:33:59;;;;;;;0.38;0.30;;;;;;;;;;5009964;28;20052;-69
2022/09/17 10:36:41;;;;;;;2.70;0.50;;;;;;;;;;5018204;28;20052;-69
2022/09/17 10:39:20;;;;;;;0.20;0.20;;;;;;;;;;5011656;28;20292;-69
2022/09/17 10:41:54;;;;;;;0.30;0.30;;;;;;;;;;5015265;28;20078;-70
2022/09/17 10:44:23;;;;;;;0.20;0.20;;;;;;;;;;5012276;28;20050;-70
2022/09/17 10:46:52;;;;;;;0.63;0.43;;;;;;;;;;5017568;28;20049;-70
2022/09/17 10:49:28;;;;;;;0.45;0.40;;;;;;;;;;5011113;28;20048;-70
2022/09/17 10:52:05;;;;;;;0.70;0.52;;;;;;;;;;5012879;28;20053;-72
2022/09/17 10:54:48;;;;;;;0.43;0.43;;;;;;;;;;5011743;28;20689;-72
2022/09/17 10:57:19;;;;;;;0.50;0.43;;;;;;;;;;5006914;28;20044;-72
2022/09/17 10:59:57;;;;;;;0.38;0.38;;;;;;;;;;5017848;28;20708;-71
2022/09/17 11:02:33;;;;;;;0.10;0.10;;;;;;;;;;5014849;28;20507;-71
2022/09/17 11:05:23;;;;;;;0.30;0.30;;;;;;;;;;5017376;28;20468;-78
2022/09/17 11:07:54;;;;;;;7.80;0.50;;;;;;;;;;5023602;28;20355;-75
2022/09/17 11:10:26;;;;;;;0.43;0.30;;;;;;;;;;5017569;28;20052;-74
2022/09/17 11:13:00;;;;;;;1.52;0.25;;;;;;;;;;5018489;28;20049;-74
2022/09/17 11:15:32;;;;;;;0.77;0.40;;;;;;;;;;5015646;28;20068;-71
2022/09/17 11:18:09;;;;;;;0.63;0.50;;;;;;;;;;5016101;28;20286;-72
2022/09/17 11:20:48;;;;;;;0.17;0.17;;;;;;;;;;5017971;28;20132;-72
2022/09/17 11:23:25;;;;;;;0.10;0.10;;;;;;;;;;5022529;28;20057;-71
2022/09/17 11:25:57;;;;;;;0.17;0.17;;;;;;;;;;5013759;28;20152;-72
2022/09/17 11:28:36;;;;;;;0.20;0.20;;;;;;;;;;5019448;28;20049;-73
2022/09/17 11:31:14;;;;;;;0.75;0.30;;;;;;;;;;5014647;28;20061;-74
2022/09/17 11:34:01;;;;;;;0.35;0.22;;;;;;;;;;5016436;28;20049;-76
2022/09/17 11:36:35;;;;;;;0.93;0.40;;;;;;;;;;5014140;28;20065;-75
2022/09/17 11:39:09;;;;;;;4.35;0.40;;;;;;;;;;5013875;28;20052;-74
2022/09/17 11:41:41;;;;;;;0.20;0.20;;;;;;;;;;5013019;28;20056;-70
2022/09/17 11:44:13;;;;;;;0.25;0.20;;;;;;;;;;5015741;28;20042;-73
2022/09/17 11:46:44;;;;;;;0.10;0.10;;;;;;;;;;5023642;28;20045;-74
2022/09/17 11:49:22;;;;;;;0.55;0.25;;;;;;;;;;5016762;28;20049;-73
2022/09/17 11:51:54;;;;;;;0.70;0.30;;;;;;;;;;5011367;28;20176;-71
2022/09/17 11:54:24;;;;;;;0.30;0.30;;;;;;;;;;5018769;28;20048;-73
2022/09/17 11:56:54;;;;;;;0.35;0.20;;;;;;;;;;5020890;28;20076;-73
2022/09/17 11:59:26;;;;;;;0.30;0.30;;;;;;;;;;5021711;28;20486;-72
2022/09/17 12:01:57;;;;;;;0.20;0.20;;;;;;;;;;5016886;28;20057;-71
2022/09/17 12:04:32;;;;;;;0.50;0.47;;;;;;;;;;5017663;28;20128;-72
2022/09/17 12:07:03;;;;;;;2.72;0.20;;;;;;;;;;5021950;28;20060;-71
2022/09/17 12:09:33;;;;;;;0.40;0.40;;;;;;;;;;5017296;28;20120;-71
2022/09/17 12:12:03;;;;;;;0.40;0.20;;;;;;;;;;5023383;28;20485;-70
2022/09/17 12:14:37;;;;;;;0.22;0.22;;;;;;;;;;5023315;28;20052;-70
2022/09/17 12:17:07;;;;;;;0.10;0.10;;;;;;;;;;5025668;28;20049;-71
2022/09/17 12:19:38;;;;;;;0.20;0.20;;;;;;;;;;5024554;28;20056;-70
2022/09/17 12:22:09;;;;;;;0.77;0.60;;;;;;;;;;5019112;28;20044;-70
2022/09/17 12:24:39;;;;;;;0.20;0.20;;;;;;;;;;5023327;28;20059;-70
2022/09/17 12:27:13;;;;;;;0.28;0.28;;;;;;;;;;5022641;28;20053;-70
2022/09/17 12:29:50;;;;;;;1.73;0.60;;;;;;;;;;5027990;28;20060;-71
2022/09/17 12:32:30;;;;;;;0.30;0.30;;;;;;;;;;5021404;28;20353;-71
2022/09/17 12:35:04;;;;;;;1.48;0.35;;;;;;;;;;5027331;28;20133;-72
2022/09/17 12:37:37;;;;;;;0.50;0.50;;;;;;;;;;5024288;28;20084;-68
2022/09/17 12:40:12;;;;;;;0.30;0.30;;;;;;;;;;5017959;28;20052;-71
2022/09/17 12:42:53;;;;;;;0.38;0.30;;;;;;;;;;5023369;28;20133;-69
2022/09/17 12:45:34;;;;;;;2.20;0.43;;;;;;;;;;5029154;28;20052;-73
2022/09/17 12:48:22;;;;;;;0.55;0.45;;;;;;;;;;5026857;28;20527;-71
2022/09/17 12:51:02;;;;;;;2.22;0.28;;;;;;;;;;5014753;28;20046;-70
2022/09/17 12:53:36;;;;;;;1.30;0.90;;;;;;;;;;5029050;28;20052;-71
2022/09/17 12:56:14;;;;;;;1.38;0.80;;;;;;;;;;5027923;28;20042;-70
2022/09/17 12:59:01;;;;;;;0.77;0.50;;;;;;;;;;5029378;28;20068;-71
2022/09/17 13:01:32;;;;;;;4.25;1.10;;;;;;;;;;5022852;28;20449;-72
2022/09/17 13:04:06;;;;;;;1.40;1.30;;;;;;;;;;5021799;28;20128;-67
2022/09/17 13:06:58;;;;;;;1.90;0.90;;;;;;;;;;5030680;28;20047;-68
2022/09/17 13:09:42;;;;;;;2.85;1.08;;;;;;;;;;5015285;28;20449;-68
2022/09/17 13:12:15;;;;;;;1.37;0.83;;;;;;;;;;5029635;28;20495;-68
2022/09/17 13:14:52;;;;;;;1.27;0.30;;;;;;;;;;5024881;28;20045;-71
2022/09/17 13:17:24;;;;;;;1.05;0.60;;;;;;;;;;5022494;28;20531;-68
2022/09/17 13:19:58;;;;;;;0.20;0.20;;;;;;;;;;5018672;28;20060;-70
2022/09/17 13:22:28;;;;;;;2.45;0.47;;;;;;;;;;5019771;28;20049;-68
2022/09/17 13:25:04;;;;;;;0.45;0.30;;;;;;;;;;5027370;28;20057;-68
2022/09/17 13:27:36;;;;;;;8.05;0.60;;;;;;;;;;5017178;28;20060;-69
2022/09/17 13:30:05;;;;;;;0.30;0.30;;;;;;;;;;5014576;28;20041;-69
2022/09/17 13:32:43;;;;;;;0.10;0.10;;;;;;;;;;5019046;28;20053;-69
2022/09/17 13:35:26;;;;;;;1.70;0.40;;;;;;;;;;5028029;28;20056;-67
2022/09/17 13:37:57;;;;;;;0.38;0.38;;;;;;;;;;5005898;28;20490;-68
2022/09/17 13:40:28;;;;;;;0.20;0.20;;;;;;;;;;5021614;28;20049;-68
2022/09/17 13:42:57;;;;;;;0.75;0.35;;;;;;;;;;5016490;28;20057;-69
2022/09/17 13:45:27;;;;;;;0.20;0.20;;;;;;;;;;5020524;28;20048;-70
2022/09/17 13:47:57;;;;;;;1.27;0.10;;;;;;;;;;5022551;28;20077;-69
2022/09/17 13:50:27;;;;;;;0.60;0.40;;;;;;;;;;5018025;28;20050;-70
2022/09/17 13:52:56;;;;;;;0.10;0.10;;;;;;;;;;5021140;28;20144;-68
2022/09/17 13:55:34;;;;;;;0.45;0.30;;;;;;;;;;5022541;28;20053;-69
2022/09/17 13:58:03;;;;;;;0.47;0.47;;;;;;;;;;5024147;28;20061;-69
2022/09/17 14:00:51;;;;;;;0.30;0.30;;;;;;;;;;5027600;28;20128;-68
2022/09/17 14:03:40;;;;;;;0.30;0.30;;;;;;;;;;5026085;28;20481;-69
2022/09/17 14:06:42;;;;;;;0.38;0.30;;;;;;;;;;5027537;28;20064;-69
2022/09/17 14:09:26;;;;;;;1.50;0.63;;;;;;;;;;4988714;28;20498;-68
2022/09/17 14:11:55;;;;;;;0.32;0.32;;;;;;;;;;4978846;28;20644;-70
2022/09/17 14:14:52;;;;;;;4.70;0.40;;;;;;;;;;5004537;28;20414;-68
2022/09/17 14:17:53;;;;;;;0.20;0.20;;;;;;;;;;5024058;28;20461;-72
2022/09/17 14:20:23;;;;;;;0.32;0.30;;;;;;;;;;4982914;28;20374;-68
2022/09/17 14:22:58;;;;;;;0.15;0.15;;;;;;;;;;4987137;28;20410;-68
2022/09/17 14:25:29;;;;;;;0.40;0.40;;;;;;;;;;5002857;28;20061;-70
2022/09/17 14:28:02;;;;;;;0.70;0.20;;;;;;;;;;5017420;28;20164;-68
2022/09/17 14:30:30;;;;;;;0.17;0.17;;;;;;;;;;5026215;28;20041;-70
2022/09/17 14:33:06;;;;;;;0.20;0.20;;;;;;;;;;5026041;28;20054;-67
2022/09/17 14:35:36;;;;;;;0.20;0.20;;;;;;;;;;5025112;28;20061;-68
2022/09/17 14:38:09;;;;;;;0.20;0.20;;;;;;;;;;5023907;28;20137;-68
2022/09/17 14:40:41;;;;;;;0.43;0.20;;;;;;;;;;5016195;28;20075;-67
2022/09/17 14:43:17;;;;;;;0.10;0.10;;;;;;;;;;5022491;28;20399;-68
2022/09/17 14:45:48;;;;;;;1.13;0.40;;;;;;;;;;5020145;28;20057;-68
2022/09/17 14:48:35;;;;;;;0.10;0.10;;;;;;;;;;5022335;28;20045;-68
2022/09/17 14:51:22;;;;;;;0.70;0.30;;;;;;;;;;5025899;28;20405;-69
2022/09/17 14:54:08;;;;;;;1.35;0.32;;;;;;;;;;5021345;28;20045;-68
2022/09/17 14:56:40;;;;;;;0.30;0.25;;;;;;;;;;5019230;28;20055;-69
2022/09/17 14:59:15;;;;;;;0.25;0.25;;;;;;;;;;5020813;28;20096;-71
2022/09/17 15:01:54;;;;;;;1.75;0.20;;;;;;;;;;5025095;28;20087;-68
2022/09/17 15:04:23;;;;;;;0.38;0.30;;;;;;;;;;5020866;28;20092;-68
2022/09/17 15:06:52;;;;;;;4.63;0.20;;;;;;;;;;5018435;28;20072;-67
2022/09/17 15:09:23;;;;;;;0.10;0.10;;;;;;;;;;5023705;28;20445;-68
2022/09/17 15:11:53;;;;;;;0.10;0.10;;;;;;;;;;5028106;28;20046;-68